sensor_id;sensor_type;location;lat;lon;timestamp;temperature;humidity
6293;DHT22;3179;54.350;10.102;2023-11-18T00:00:50;7.70;99.90
6293;DHT22;3179;54.350;10.102;2023-11-18T00:03:17;7.70;99.90
6293;DHT22;3179;54.350;10.102;2023-11-18T00:05:44;7.70;99.90
6293;DHT22;3179;54.350;10.102;2023-11-18T00:08:10;7.70;99.90
6293;DHT22;3179;54.350;10.102;2023-11-18T00:10:38;7.60;99.90
6293;DHT22;3179;54.350;10.102;2023-11-18T00:13:05;7.60;99.90
6293;DHT22;3179;54.350;10.102;2023-11-18T00:15:33;7.60;99.90
6293;DHT22;3179;54.350;10.102;2023-11-18T00:18:01;7.70;99.90
6293;DHT22;3179;54.350;10.102;2023-11-18T00:20:28;7.70;99.90
6293;DHT22;3179;54.350;10.102;2023-11-18T00:22:56;7.70;99.90
6293;DHT22;3179;54.350;10.102;2023-11-18T00:25:23;7.60;99.90
6293;DHT22;3179;54.350;10.102;2023-11-18T00:27:50;7.60;99.90
6293;DHT22;3179;54.350;10.102;2023-11-18T00:30:17;7.60;99.90
6293;DHT22;3179;54.350;10.102;2023-11-18T00:32:45;7.60;99.90
6293;DHT22;3179;54.350;10.102;2023-11-18T00:35:12;7.60;99.90
6293;DHT22;3179;54.350;10.102;2023-11-18T00:37:38;7.60;99.90
6293;DHT22;3179;54.350;10.102;2023-11-18T00:40:06;7.60;99.90
6293;DHT22;3179;54.350;10.102;2023-11-18T00:42:34;7.60;99.90
6293;DHT22;3179;54.350;10.102;2023-11-18T00:45:00;7.60;99.90
6293;DHT22;3179;54.350;10.102;2023-11-18T00:47:29;7.60;99.90
6293;DHT22;3179;54.350;10.102;2023-11-18T00:49:57;7.60;99.90
6293;DHT22;3179;54.350;10.102;2023-11-18T00:52:27;7.60;99.90
6293;DHT22;3179;54.350;10.102;2023-11-18T00:54:54;7.60;99.90
6293;DHT22;3179;54.350;10.102;2023-11-18T00:57:20;7.60;99.90
6293;DHT22;3179;54.350;10.102;2023-11-18T00:59:47;7.60;99.90
6293;DHT22;3179;54.350;10.102;2023-11-18T01:02:14;7.60;99.90
6293;DHT22;3179;54.350;10.102;2023-11-18T01:04:42;7.50;99.90
6293;DHT22;3179;54.350;10.102;2023-11-18T01:07:11;7.50;99.90
6293;DHT22;3179;54.350;10.102;2023-11-18T01:09:38;7.50;99.90
6293;DHT22;3179;54.350;10.102;2023-11-18T01:12:06;7.40;99.90
6293;DHT22;3179;54.350;10.102;2023-11-18T01:14:35;7.40;99.90
6293;DHT22;3179;54.350;10.102;2023-11-18T01:17:03;7.40;99.90
6293;DHT22;3179;54.350;10.102;2023-11-18T01:19:30;7.30;99.90
6293;DHT22;3179;54.350;10.102;2023-11-18T01:21:57;7.30;99.90
6293;DHT22;3179;54.350;10.102;2023-11-18T01:24:25;7.20;99.90
6293;DHT22;3179;54.350;10.102;2023-11-18T01:26:51;7.20;99.90
6293;DHT22;3179;54.350;10.102;2023-11-18T01:29:18;7.20;99.90
6293;DHT22;3179;54.350;10.102;2023-11-18T01:31:47;7.10;99.90
6293;DHT22;3179;54.350;10.102;2023-11-18T01:34:14;7.10;99.90
6293;DHT22;3179;54.350;10.102;2023-11-18T01:36:42;7.00;99.90
6293;DHT22;3179;54.350;10.102;2023-11-18T01:39:09;7.00;99.90
6293;DHT22;3179;54.350;10.102;2023-11-18T01:41:39;6.90;99.90
6293;DHT22;3179;54.350;10.102;2023-11-18T01:44:06;6.90;99.90
6293;DHT22;3179;54.350;10.102;2023-11-18T01:46:33;6.90;99.90
6293;DHT22;3179;54.350;10.102;2023-11-18T01:49:01;6.80;99.90
6293;DHT22;3179;54.350;10.102;2023-11-18T01:51:29;6.80;99.90
6293;DHT22;3179;54.350;10.102;2023-11-18T01:53:57;6.80;99.90
6293;DHT22;3179;54.350;10.102;2023-11-18T01:56:26;6.70;99.90
6293;DHT22;3179;54.350;10.102;2023-11-18T01:58:55;6.60;99.90
6293;DHT22;3179;54.350;10.102;2023-11-18T02:01:24;6.60;99.90
6293;DHT22;3179;54.350;10.102;2023-11-18T02:03:52;6.60;99.90
6293;DHT22;3179;54.350;10.102;2023-11-18T02:06:19;6.50;99.90
6293;DHT22;3179;54.350;10.102;2023-11-18T02:08:47;6.50;99.90
6293;DHT22;3179;54.350;10.102;2023-11-18T02:11:17;6.50;99.90
6293;DHT22;3179;54.350;10.102;2023-11-18T02:13:48;6.50;99.90
6293;DHT22;3179;54.350;10.102;2023-11-18T02:16:20;6.40;99.90
6293;DHT22;3179;54.350;10.102;2023-11-18T02:18:47;6.40;99.90
6293;DHT22;3179;54.350;10.102;2023-11-18T02:21:15;6.40;99.90
6293;DHT22;3179;54.350;10.102;2023-11-18T02:23:43;6.40;99.90
6293;DHT22;3179;54.350;10.102;2023-11-18T02:26:21;6.30;99.90
6293;DHT22;3179;54.350;10.102;2023-11-18T02:28:47;6.30;99.90
6293;DHT22;3179;54.350;10.102;2023-11-18T02:31:19;6.20;99.90
6293;DHT22;3179;54.350;10.102;2023-11-18T02:33:52;6.20;99.90
6293;DHT22;3179;54.350;10.102;2023-11-18T02:36:26;6.30;99.90
6293;DHT22;3179;54.350;10.102;2023-11-18T02:39:03;6.20;99.90
6293;DHT22;3179;54.350;10.102;2023-11-18T02:41:35;6.20;99.90
6293;DHT22;3179;54.350;10.102;2023-11-18T02:44:03;6.30;99.90
6293;DHT22;3179;54.350;10.102;2023-11-18T02:46:34;6.30;99.90
6293;DHT22;3179;54.350;10.102;2023-11-18T02:49:01;6.30;99.90
6293;DHT22;3179;54.350;10.102;2023-11-18T02:51:29;6.30;99.90
6293;DHT22;3179;54.350;10.102;2023-11-18T02:53:56;6.30;99.90
6293;DHT22;3179;54.350;10.102;2023-11-18T02:56:23;6.30;99.90
6293;DHT22;3179;54.350;10.102;2023-11-18T02:58:51;6.30;99.90
6293;DHT22;3179;54.350;10.102;2023-11-18T03:01:18;6.30;99.90
6293;DHT22;3179;54.350;10.102;2023-11-18T03:03:45;6.30;99.90
6293;DHT22;3179;54.350;10.102;2023-11-18T03:06:11;6.20;99.90
6293;DHT22;3179;54.350;10.102;2023-11-18T03:08:38;6.20;99.90
6293;DHT22;3179;54.350;10.102;2023-11-18T03:11:07;6.30;99.90
6293;DHT22;3179;54.350;10.102;2023-11-18T03:13:34;6.30;99.90
6293;DHT22;3179;54.350;10.102;2023-11-18T03:16:06;6.30;99.90
6293;DHT22;3179;54.350;10.102;2023-11-18T03:18:37;6.30;99.90
6293;DHT22;3179;54.350;10.102;2023-11-18T03:21:05;6.30;99.90
6293;DHT22;3179;54.350;10.102;2023-11-18T03:23:32;6.30;99.90
6293;DHT22;3179;54.350;10.102;2023-11-18T03:25:59;6.30;99.90
6293;DHT22;3179;54.350;10.102;2023-11-18T03:28:26;6.30;99.90
6293;DHT22;3179;54.350;10.102;2023-11-18T03:30:53;6.30;99.90
6293;DHT22;3179;54.350;10.102;2023-11-18T03:33:21;6.30;99.90
6293;DHT22;3179;54.350;10.102;2023-11-18T03:35:48;6.30;99.90
6293;DHT22;3179;54.350;10.102;2023-11-18T03:38:14;6.30;99.90
6293;DHT22;3179;54.350;10.102;2023-11-18T03:40:43;6.30;99.90
6293;DHT22;3179;54.350;10.102;2023-11-18T03:43:10;6.30;99.90
6293;DHT22;3179;54.350;10.102;2023-11-18T03:45:39;6.30;99.90
6293;DHT22;3179;54.350;10.102;2023-11-18T03:48:06;6.30;99.90
6293;DHT22;3179;54.350;10.102;2023-11-18T03:50:34;6.40;99.90
6293;DHT22;3179;54.350;10.102;2023-11-18T03:53:01;6.30;99.90
6293;DHT22;3179;54.350;10.102;2023-11-18T03:55:29;6.40;99.90
6293;DHT22;3179;54.350;10.102;2023-11-18T03:57:56;6.40;99.90
6293;DHT22;3179;54.350;10.102;2023-11-18T04:00:23;6.40;99.90
6293;DHT22;3179;54.350;10.102;2023-11-18T04:02:55;6.40;99.90
6293;DHT22;3179;54.350;10.102;2023-11-18T04:05:21;6.40;99.90
6293;DHT22;3179;54.350;10.102;2023-11-18T04:07:50;6.40;99.90
6293;DHT22;3179;54.350;10.102;2023-11-18T04:10:17;6.40;99.90
6293;DHT22;3179;54.350;10.102;2023-11-18T04:12:46;6.50;99.90
6293;DHT22;3179;54.350;10.102;2023-11-18T04:15:14;6.50;99.90
6293;DHT22;3179;54.350;10.102;2023-11-18T04:17:41;6.50;99.90
6293;DHT22;3179;54.350;10.102;2023-11-18T04:20:10;6.50;99.90
6293;DHT22;3179;54.350;10.102;2023-11-18T04:22:39;6.50;99.90
6293;DHT22;3179;54.350;10.102;2023-11-18T04:25:08;6.50;99.90
6293;DHT22;3179;54.350;10.102;2023-11-18T04:27:35;6.50;99.90
6293;DHT22;3179;54.350;10.102;2023-11-18T04:30:02;6.50;99.90
6293;DHT22;3179;54.350;10.102;2023-11-18T04:32:29;6.50;99.90
6293;DHT22;3179;54.350;10.102;2023-11-18T04:34:58;6.50;99.90
6293;DHT22;3179;54.350;10.102;2023-11-18T04:37:25;6.50;99.90
6293;DHT22;3179;54.350;10.102;2023-11-18T04:39:52;6.50;99.90
6293;DHT22;3179;54.350;10.102;2023-11-18T04:42:20;6.50;99.90
6293;DHT22;3179;54.350;10.102;2023-11-18T04:44:47;6.50;99.90
6293;DHT22;3179;54.350;10.102;2023-11-18T04:47:14;6.50;99.90
6293;DHT22;3179;54.350;10.102;2023-11-18T04:49:43;6.50;99.90
6293;DHT22;3179;54.350;10.102;2023-11-18T04:52:10;6.50;99.90
6293;DHT22;3179;54.350;10.102;2023-11-18T04:54:37;6.50;99.90
6293;DHT22;3179;54.350;10.102;2023-11-18T04:57:04;6.50;99.90
6293;DHT22;3179;54.350;10.102;2023-11-18T04:59:31;6.50;99.90
6293;DHT22;3179;54.350;10.102;2023-11-18T05:01:58;6.50;99.90
6293;DHT22;3179;54.350;10.102;2023-11-18T05:04:24;6.50;99.90
6293;DHT22;3179;54.350;10.102;2023-11-18T05:06:51;6.50;99.90
6293;DHT22;3179;54.350;10.102;2023-11-18T05:09:18;6.60;99.90
6293;DHT22;3179;54.350;10.102;2023-11-18T05:11:44;6.50;99.90
6293;DHT22;3179;54.350;10.102;2023-11-18T05:14:11;6.60;99.90
6293;DHT22;3179;54.350;10.102;2023-11-18T05:16:39;6.50;99.90
6293;DHT22;3179;54.350;10.102;2023-11-18T05:19:07;6.50;99.90
6293;DHT22;3179;54.350;10.102;2023-11-18T05:21:34;6.50;99.90
6293;DHT22;3179;54.350;10.102;2023-11-18T05:24:01;6.50;99.90
6293;DHT22;3179;54.350;10.102;2023-11-18T05:26:28;6.60;99.90
6293;DHT22;3179;54.350;10.102;2023-11-18T05:28:55;6.60;99.90
6293;DHT22;3179;54.350;10.102;2023-11-18T05:31:21;6.60;99.90
6293;DHT22;3179;54.350;10.102;2023-11-18T05:33:49;6.60;99.90
6293;DHT22;3179;54.350;10.102;2023-11-18T05:36:20;6.60;99.90
6293;DHT22;3179;54.350;10.102;2023-11-18T05:38:53;6.60;99.90
6293;DHT22;3179;54.350;10.102;2023-11-18T05:41:20;6.60;99.90
6293;DHT22;3179;54.350;10.102;2023-11-18T05:43:53;6.60;99.90
6293;DHT22;3179;54.350;10.102;2023-11-18T05:46:23;6.60;99.90
6293;DHT22;3179;54.350;10.102;2023-11-18T05:48:53;6.60;99.90
6293;DHT22;3179;54.350;10.102;2023-11-18T05:51:20;6.60;99.90
6293;DHT22;3179;54.350;10.102;2023-11-18T05:53:48;6.60;99.90
6293;DHT22;3179;54.350;10.102;2023-11-18T05:56:16;6.60;99.90
6293;DHT22;3179;54.350;10.102;2023-11-18T05:58:43;6.60;99.90
6293;DHT22;3179;54.350;10.102;2023-11-18T06:01:10;6.60;99.90
6293;DHT22;3179;54.350;10.102;2023-11-18T06:03:37;6.60;99.90
6293;DHT22;3179;54.350;10.102;2023-11-18T06:06:07;6.60;99.90
6293;DHT22;3179;54.350;10.102;2023-11-18T06:08:34;6.60;99.90
6293;DHT22;3179;54.350;10.102;2023-11-18T06:11:00;6.50;99.90
6293;DHT22;3179;54.350;10.102;2023-11-18T06:13:38;6.50;99.90
6293;DHT22;3179;54.350;10.102;2023-11-18T06:16:08;6.50;99.90
6293;DHT22;3179;54.350;10.102;2023-11-18T06:18:35;6.50;99.90
6293;DHT22;3179;54.350;10.102;2023-11-18T06:21:03;6.50;99.90
6293;DHT22;3179;54.350;10.102;2023-11-18T06:23:34;6.50;99.90
6293;DHT22;3179;54.350;10.102;2023-11-18T06:26:01;6.50;99.90
6293;DHT22;3179;54.350;10.102;2023-11-18T06:28:28;6.50;99.90
6293;DHT22;3179;54.350;10.102;2023-11-18T06:30:59;6.50;99.90
6293;DHT22;3179;54.350;10.102;2023-11-18T06:33:27;6.50;99.90
6293;DHT22;3179;54.350;10.102;2023-11-18T06:35:54;6.50;99.90
6293;DHT22;3179;54.350;10.102;2023-11-18T06:38:21;6.50;99.90
6293;DHT22;3179;54.350;10.102;2023-11-18T06:40:51;6.50;99.90
6293;DHT22;3179;54.350;10.102;2023-11-18T06:43:19;6.50;99.90
6293;DHT22;3179;54.350;10.102;2023-11-18T06:45:46;6.50;99.90
6293;DHT22;3179;54.350;10.102;2023-11-18T06:48:14;6.40;99.90
6293;DHT22;3179;54.350;10.102;2023-11-18T06:57:56;6.40;99.90
6293;DHT22;3179;54.350;10.102;2023-11-18T07:00:23;6.30;99.90
6293;DHT22;3179;54.350;10.102;2023-11-18T07:02:53;6.30;99.90
6293;DHT22;3179;54.350;10.102;2023-11-18T07:05:20;6.30;99.90
6293;DHT22;3179;54.350;10.102;2023-11-18T07:07:49;6.30;99.90
6293;DHT22;3179;54.350;10.102;2023-11-18T07:10:16;6.30;99.90
6293;DHT22;3179;54.350;10.102;2023-11-18T07:12:46;6.30;99.90
6293;DHT22;3179;54.350;10.102;2023-11-18T07:15:14;6.30;99.90
6293;DHT22;3179;54.350;10.102;2023-11-18T07:17:41;6.30;99.90
6293;DHT22;3179;54.350;10.102;2023-11-18T07:20:09;6.30;99.90
6293;DHT22;3179;54.350;10.102;2023-11-18T07:22:39;6.30;99.90
6293;DHT22;3179;54.350;10.102;2023-11-18T07:25:06;6.30;99.90
6293;DHT22;3179;54.350;10.102;2023-11-18T07:27:35;6.30;99.90
6293;DHT22;3179;54.350;10.102;2023-11-18T07:30:02;6.30;99.90
6293;DHT22;3179;54.350;10.102;2023-11-18T07:32:33;6.30;99.90
6293;DHT22;3179;54.350;10.102;2023-11-18T07:35:00;6.30;99.90
6293;DHT22;3179;54.350;10.102;2023-11-18T07:37:26;6.30;99.90
6293;DHT22;3179;54.350;10.102;2023-11-18T07:39:53;6.30;99.90
6293;DHT22;3179;54.350;10.102;2023-11-18T07:42:20;6.40;99.90
6293;DHT22;3179;54.350;10.102;2023-11-18T07:44:47;6.40;99.90
6293;DHT22;3179;54.350;10.102;2023-11-18T07:47:14;6.40;99.90
6293;DHT22;3179;54.350;10.102;2023-11-18T07:49:43;6.40;99.90
6293;DHT22;3179;54.350;10.102;2023-11-18T07:52:11;6.40;99.90
6293;DHT22;3179;54.350;10.102;2023-11-18T07:54:37;6.40;99.90
6293;DHT22;3179;54.350;10.102;2023-11-18T07:57:04;6.40;99.90
6293;DHT22;3179;54.350;10.102;2023-11-18T07:59:35;6.50;99.90
6293;DHT22;3179;54.350;10.102;2023-11-18T08:02:03;6.50;99.90
6293;DHT22;3179;54.350;10.102;2023-11-18T08:04:34;6.50;99.90
6293;DHT22;3179;54.350;10.102;2023-11-18T08:07:03;6.60;99.90
6293;DHT22;3179;54.350;10.102;2023-11-18T08:09:30;6.60;99.90
6293;DHT22;3179;54.350;10.102;2023-11-18T08:11:57;6.60;99.90
6293;DHT22;3179;54.350;10.102;2023-11-18T08:14:24;6.60;99.90
6293;DHT22;3179;54.350;10.102;2023-11-18T08:16:52;6.60;99.90
6293;DHT22;3179;54.350;10.102;2023-11-18T08:19:21;6.60;99.90
6293;DHT22;3179;54.350;10.102;2023-11-18T08:21:48;6.60;99.90
6293;DHT22;3179;54.350;10.102;2023-11-18T08:24:16;6.70;99.90
6293;DHT22;3179;54.350;10.102;2023-11-18T08:26:43;6.70;99.90
6293;DHT22;3179;54.350;10.102;2023-11-18T08:29:10;6.70;99.90
6293;DHT22;3179;54.350;10.102;2023-11-18T08:31:38;6.70;99.90
6293;DHT22;3179;54.350;10.102;2023-11-18T08:34:06;6.70;99.90
6293;DHT22;3179;54.350;10.102;2023-11-18T08:36:32;6.70;99.90
6293;DHT22;3179;54.350;10.102;2023-11-18T08:38:59;6.70;99.90
6293;DHT22;3179;54.350;10.102;2023-11-18T08:41:27;6.80;99.90
6293;DHT22;3179;54.350;10.102;2023-11-18T08:43:56;6.80;99.90
6293;DHT22;3179;54.350;10.102;2023-11-18T08:46:23;6.80;99.90
6293;DHT22;3179;54.350;10.102;2023-11-18T08:48:50;6.80;99.90
6293;DHT22;3179;54.350;10.102;2023-11-18T08:51:17;6.90;99.90
6293;DHT22;3179;54.350;10.102;2023-11-18T08:53:44;6.90;99.90
6293;DHT22;3179;54.350;10.102;2023-11-18T08:56:11;7.00;99.90
6293;DHT22;3179;54.350;10.102;2023-11-18T08:58:42;7.00;99.90
6293;DHT22;3179;54.350;10.102;2023-11-18T09:01:10;7.00;99.90
6293;DHT22;3179;54.350;10.102;2023-11-18T09:03:39;7.00;99.90
6293;DHT22;3179;54.350;10.102;2023-11-18T09:06:10;7.00;99.90
6293;DHT22;3179;54.350;10.102;2023-11-18T09:08:43;6.90;99.90
6293;DHT22;3179;54.350;10.102;2023-11-18T09:11:12;6.90;99.90
6293;DHT22;3179;54.350;10.102;2023-11-18T09:13:42;7.00;99.90
6293;DHT22;3179;54.350;10.102;2023-11-18T09:16:10;7.00;99.90
6293;DHT22;3179;54.350;10.102;2023-11-18T09:18:39;7.00;99.90
6293;DHT22;3179;54.350;10.102;2023-11-18T09:21:07;7.10;99.90
6293;DHT22;3179;54.350;10.102;2023-11-18T09:23:40;7.10;99.90
6293;DHT22;3179;54.350;10.102;2023-11-18T09:26:07;7.10;99.90
6293;DHT22;3179;54.350;10.102;2023-11-18T09:28:36;7.10;99.90
6293;DHT22;3179;54.350;10.102;2023-11-18T09:31:05;7.10;99.90
6293;DHT22;3179;54.350;10.102;2023-11-18T09:33:37;7.20;99.90
6293;DHT22;3179;54.350;10.102;2023-11-18T09:36:06;7.30;99.90
6293;DHT22;3179;54.350;10.102;2023-11-18T09:38:34;7.40;99.90
6293;DHT22;3179;54.350;10.102;2023-11-18T09:41:04;7.40;99.90
6293;DHT22;3179;54.350;10.102;2023-11-18T09:43:33;7.40;99.90
6293;DHT22;3179;54.350;10.102;2023-11-18T09:46:09;7.50;99.90
6293;DHT22;3179;54.350;10.102;2023-11-18T09:48:42;7.60;99.90
6293;DHT22;3179;54.350;10.102;2023-11-18T09:51:17;7.60;99.90
6293;DHT22;3179;54.350;10.102;2023-11-18T09:53:49;7.70;99.90
6293;DHT22;3179;54.350;10.102;2023-11-18T09:56:20;7.80;99.90
6293;DHT22;3179;54.350;10.102;2023-11-18T09:59:01;7.90;99.90
6293;DHT22;3179;54.350;10.102;2023-11-18T10:01:35;7.90;99.90
6293;DHT22;3179;54.350;10.102;2023-11-18T10:04:05;7.90;99.90
6293;DHT22;3179;54.350;10.102;2023-11-18T10:06:35;7.90;99.90
6293;DHT22;3179;54.350;10.102;2023-11-18T10:09:06;7.80;99.90
6293;DHT22;3179;54.350;10.102;2023-11-18T10:11:42;7.80;99.90
6293;DHT22;3179;54.350;10.102;2023-11-18T10:14:12;7.70;99.90
6293;DHT22;3179;54.350;10.102;2023-11-18T10:16:43;7.70;99.90
6293;DHT22;3179;54.350;10.102;2023-11-18T10:19:12;7.60;99.90
6293;DHT22;3179;54.350;10.102;2023-11-18T10:21:40;7.60;99.90
6293;DHT22;3179;54.350;10.102;2023-11-18T10:24:08;7.60;99.90
6293;DHT22;3179;54.350;10.102;2023-11-18T10:26:42;7.70;99.90
6293;DHT22;3179;54.350;10.102;2023-11-18T10:29:11;7.70;99.90
6293;DHT22;3179;54.350;10.102;2023-11-18T10:31:39;7.80;99.90
6293;DHT22;3179;54.350;10.102;2023-11-18T10:34:12;7.80;99.90
6293;DHT22;3179;54.350;10.102;2023-11-18T10:36:41;7.80;99.90
6293;DHT22;3179;54.350;10.102;2023-11-18T10:39:12;7.90;99.90
6293;DHT22;3179;54.350;10.102;2023-11-18T10:41:42;7.90;99.90
6293;DHT22;3179;54.350;10.102;2023-11-18T10:44:11;7.90;99.90
6293;DHT22;3179;54.350;10.102;2023-11-18T10:46:41;8.00;99.90
6293;DHT22;3179;54.350;10.102;2023-11-18T10:49:08;8.00;99.90
6293;DHT22;3179;54.350;10.102;2023-11-18T10:51:36;8.10;99.90
6293;DHT22;3179;54.350;10.102;2023-11-18T10:54:05;8.20;99.90
6293;DHT22;3179;54.350;10.102;2023-11-18T10:56:46;8.20;99.90
6293;DHT22;3179;54.350;10.102;2023-11-18T10:59:13;8.20;99.90
6293;DHT22;3179;54.350;10.102;2023-11-18T11:01:42;8.30;99.90
6293;DHT22;3179;54.350;10.102;2023-11-18T11:04:09;8.30;99.90
6293;DHT22;3179;54.350;10.102;2023-11-18T11:06:41;8.40;99.90
6293;DHT22;3179;54.350;10.102;2023-11-18T11:09:08;8.40;99.90
6293;DHT22;3179;54.350;10.102;2023-11-18T11:11:46;8.50;99.90
6293;DHT22;3179;54.350;10.102;2023-11-18T11:14:15;8.50;99.90
6293;DHT22;3179;54.350;10.102;2023-11-18T11:16:47;8.50;99.90
6293;DHT22;3179;54.350;10.102;2023-11-18T11:19:24;8.60;99.90
6293;DHT22;3179;54.350;10.102;2023-11-18T11:22:00;8.60;99.90
6293;DHT22;3179;54.350;10.102;2023-11-18T11:24:40;8.50;99.90
6293;DHT22;3179;54.350;10.102;2023-11-18T11:27:21;8.60;99.90
6293;DHT22;3179;54.350;10.102;2023-11-18T11:29:57;8.60;99.90
6293;DHT22;3179;54.350;10.102;2023-11-18T11:32:28;8.60;99.90
6293;DHT22;3179;54.350;10.102;2023-11-18T11:35:01;8.70;99.90
6293;DHT22;3179;54.350;10.102;2023-11-18T11:37:34;8.80;99.90
6293;DHT22;3179;54.350;10.102;2023-11-18T11:40:02;8.90;99.90
6293;DHT22;3179;54.350;10.102;2023-11-18T11:42:35;8.90;99.90
6293;DHT22;3179;54.350;10.102;2023-11-18T11:45:02;8.90;99.90
6293;DHT22;3179;54.350;10.102;2023-11-18T11:47:29;8.90;99.90
6293;DHT22;3179;54.350;10.102;2023-11-18T11:50:06;8.80;99.90
6293;DHT22;3179;54.350;10.102;2023-11-18T11:52:43;8.80;99.90
6293;DHT22;3179;54.350;10.102;2023-11-18T11:55:29;8.80;99.90
6293;DHT22;3179;54.350;10.102;2023-11-18T11:57:57;8.80;99.90
6293;DHT22;3179;54.350;10.102;2023-11-18T12:00:25;8.80;99.90
6293;DHT22;3179;54.350;10.102;2023-11-18T12:03:01;8.80;99.90
6293;DHT22;3179;54.350;10.102;2023-11-18T12:05:30;8.80;99.90
6293;DHT22;3179;54.350;10.102;2023-11-18T12:08:00;8.90;99.90
6293;DHT22;3179;54.350;10.102;2023-11-18T12:10:27;8.90;99.90
6293;DHT22;3179;54.350;10.102;2023-11-18T12:13:07;8.90;99.90
6293;DHT22;3179;54.350;10.102;2023-11-18T12:15:50;8.90;99.90
6293;DHT22;3179;54.350;10.102;2023-11-18T12:18:23;8.90;99.90
6293;DHT22;3179;54.350;10.102;2023-11-18T12:20:50;8.90;99.90
6293;DHT22;3179;54.350;10.102;2023-11-18T12:23:22;9.00;99.90
6293;DHT22;3179;54.350;10.102;2023-11-18T12:25:50;9.10;99.90
6293;DHT22;3179;54.350;10.102;2023-11-18T12:28:24;9.10;99.90
6293;DHT22;3179;54.350;10.102;2023-11-18T12:30:53;9.10;99.90
6293;DHT22;3179;54.350;10.102;2023-11-18T12:33:22;9.00;99.90
6293;DHT22;3179;54.350;10.102;2023-11-18T12:43:00;9.00;99.90
6293;DHT22;3179;54.350;10.102;2023-11-18T12:45:43;9.00;99.90
6293;DHT22;3179;54.350;10.102;2023-11-18T12:48:14;8.90;99.90
6293;DHT22;3179;54.350;10.102;2023-11-18T12:50:41;8.90;99.90
6293;DHT22;3179;54.350;10.102;2023-11-18T12:53:11;8.90;99.90
6293;DHT22;3179;54.350;10.102;2023-11-18T12:55:41;8.90;99.90
6293;DHT22;3179;54.350;10.102;2023-11-18T12:58:09;8.90;99.90
6293;DHT22;3179;54.350;10.102;2023-11-18T13:00:40;8.90;99.90
6293;DHT22;3179;54.350;10.102;2023-11-18T13:03:08;9.00;99.90
6293;DHT22;3179;54.350;10.102;2023-11-18T13:05:36;9.00;99.90
6293;DHT22;3179;54.350;10.102;2023-11-18T13:08:03;9.00;99.90
6293;DHT22;3179;54.350;10.102;2023-11-18T13:10:30;9.10;99.90
6293;DHT22;3179;54.350;10.102;2023-11-18T13:12:58;9.10;99.90
6293;DHT22;3179;54.350;10.102;2023-11-18T13:15:27;9.10;99.90
6293;DHT22;3179;54.350;10.102;2023-11-18T13:17:58;9.00;99.90
6293;DHT22;3179;54.350;10.102;2023-11-18T13:20:25;9.00;99.90
6293;DHT22;3179;54.350;10.102;2023-11-18T13:22:52;9.00;99.90
6293;DHT22;3179;54.350;10.102;2023-11-18T13:25:21;9.00;99.90
6293;DHT22;3179;54.350;10.102;2023-11-18T13:27:49;9.00;99.90
6293;DHT22;3179;54.350;10.102;2023-11-18T13:30:16;8.90;99.90
6293;DHT22;3179;54.350;10.102;2023-11-18T13:32:47;8.90;99.90
6293;DHT22;3179;54.350;10.102;2023-11-18T13:35:16;8.80;99.90
6293;DHT22;3179;54.350;10.102;2023-11-18T13:37:47;8.80;99.90
6293;DHT22;3179;54.350;10.102;2023-11-18T13:40:14;8.80;99.90
6293;DHT22;3179;54.350;10.102;2023-11-18T13:42:44;8.80;99.90
6293;DHT22;3179;54.350;10.102;2023-11-18T13:45:15;8.80;99.90
6293;DHT22;3179;54.350;10.102;2023-11-18T13:47:52;8.80;99.90
6293;DHT22;3179;54.350;10.102;2023-11-18T13:50:22;8.80;99.90
6293;DHT22;3179;54.350;10.102;2023-11-18T13:52:50;8.70;99.90
6293;DHT22;3179;54.350;10.102;2023-11-18T13:55:17;8.70;99.90
6293;DHT22;3179;54.350;10.102;2023-11-18T13:57:52;8.80;99.90
6293;DHT22;3179;54.350;10.102;2023-11-18T14:00:22;8.70;99.90
6293;DHT22;3179;54.350;10.102;2023-11-18T14:02:49;8.60;99.90
6293;DHT22;3179;54.350;10.102;2023-11-18T14:05:18;8.60;99.90
6293;DHT22;3179;54.350;10.102;2023-11-18T14:07:47;8.60;99.90
6293;DHT22;3179;54.350;10.102;2023-11-18T14:10:14;8.60;99.90
6293;DHT22;3179;54.350;10.102;2023-11-18T14:13:01;8.60;99.90
6293;DHT22;3179;54.350;10.102;2023-11-18T14:15:29;8.60;99.90
6293;DHT22;3179;54.350;10.102;2023-11-18T14:17:56;8.60;99.90
6293;DHT22;3179;54.350;10.102;2023-11-18T14:20:24;8.60;99.90
6293;DHT22;3179;54.350;10.102;2023-11-18T14:22:51;8.60;99.90
6293;DHT22;3179;54.350;10.102;2023-11-18T14:25:18;8.60;99.90
6293;DHT22;3179;54.350;10.102;2023-11-18T14:27:44;8.50;99.90
6293;DHT22;3179;54.350;10.102;2023-11-18T14:30:13;8.50;99.90
6293;DHT22;3179;54.350;10.102;2023-11-18T14:32:41;8.50;99.90
6293;DHT22;3179;54.350;10.102;2023-11-18T14:35:08;8.50;99.90
6293;DHT22;3179;54.350;10.102;2023-11-18T14:37:39;8.50;99.90
6293;DHT22;3179;54.350;10.102;2023-11-18T14:40:10;8.40;99.90
6293;DHT22;3179;54.350;10.102;2023-11-18T14:42:40;8.40;99.90
6293;DHT22;3179;54.350;10.102;2023-11-18T14:45:08;8.40;99.90
6293;DHT22;3179;54.350;10.102;2023-11-18T14:47:35;8.40;99.90
6293;DHT22;3179;54.350;10.102;2023-11-18T14:50:01;8.40;99.90
6293;DHT22;3179;54.350;10.102;2023-11-18T14:52:31;8.40;99.90
6293;DHT22;3179;54.350;10.102;2023-11-18T14:54:59;8.30;99.90
6293;DHT22;3179;54.350;10.102;2023-11-18T14:57:26;8.30;99.90
6293;DHT22;3179;54.350;10.102;2023-11-18T14:59:54;8.30;99.90
6293;DHT22;3179;54.350;10.102;2023-11-18T15:02:21;8.30;99.90
6293;DHT22;3179;54.350;10.102;2023-11-18T15:04:47;8.30;99.90
6293;DHT22;3179;54.350;10.102;2023-11-18T15:07:15;8.30;99.90
6293;DHT22;3179;54.350;10.102;2023-11-18T15:09:42;8.30;99.90
6293;DHT22;3179;54.350;10.102;2023-11-18T15:12:10;8.30;99.90
6293;DHT22;3179;54.350;10.102;2023-11-18T15:14:37;8.20;99.90
6293;DHT22;3179;54.350;10.102;2023-11-18T15:17:04;8.20;99.90
6293;DHT22;3179;54.350;10.102;2023-11-18T15:19:31;8.20;99.90
6293;DHT22;3179;54.350;10.102;2023-11-18T15:21:58;8.20;99.90
6293;DHT22;3179;54.350;10.102;2023-11-18T15:24:25;8.20;99.90
6293;DHT22;3179;54.350;10.102;2023-11-18T15:26:52;8.20;99.90
6293;DHT22;3179;54.350;10.102;2023-11-18T15:29:21;8.20;99.90
6293;DHT22;3179;54.350;10.102;2023-11-18T15:31:53;8.20;99.90
6293;DHT22;3179;54.350;10.102;2023-11-18T15:34:20;8.20;99.90
6293;DHT22;3179;54.350;10.102;2023-11-18T15:36:48;8.20;99.90
6293;DHT22;3179;54.350;10.102;2023-11-18T15:39:14;8.10;99.90
6293;DHT22;3179;54.350;10.102;2023-11-18T15:41:41;8.20;99.90
6293;DHT22;3179;54.350;10.102;2023-11-18T15:44:08;8.20;99.90
6293;DHT22;3179;54.350;10.102;2023-11-18T15:46:38;8.20;99.90
6293;DHT22;3179;54.350;10.102;2023-11-18T15:49:04;8.20;99.90
6293;DHT22;3179;54.350;10.102;2023-11-18T15:51:31;8.20;99.90
6293;DHT22;3179;54.350;10.102;2023-11-18T15:53:58;8.20;99.90
6293;DHT22;3179;54.350;10.102;2023-11-18T15:56:25;8.10;99.90
6293;DHT22;3179;54.350;10.102;2023-11-18T15:58:51;8.10;99.90
6293;DHT22;3179;54.350;10.102;2023-11-18T16:01:18;8.10;99.90
6293;DHT22;3179;54.350;10.102;2023-11-18T16:03:46;8.10;99.90
6293;DHT22;3179;54.350;10.102;2023-11-18T16:06:14;8.10;99.90
6293;DHT22;3179;54.350;10.102;2023-11-18T16:08:41;8.00;99.90
6293;DHT22;3179;54.350;10.102;2023-11-18T16:11:11;8.00;99.90
6293;DHT22;3179;54.350;10.102;2023-11-18T16:13:38;8.00;99.90
6293;DHT22;3179;54.350;10.102;2023-11-18T16:16:05;8.00;99.90
6293;DHT22;3179;54.350;10.102;2023-11-18T16:18:34;8.10;99.90
6293;DHT22;3179;54.350;10.102;2023-11-18T16:21:02;8.10;99.90
6293;DHT22;3179;54.350;10.102;2023-11-18T16:23:29;8.10;99.90
6293;DHT22;3179;54.350;10.102;2023-11-18T16:26:00;8.10;99.90